createdAt,value
2018-11-10T00:00:19.236Z,10.75
2018-11-10T00:02:48.410Z,10.75
2018-11-10T00:05:17.132Z,10.69
2018-11-10T00:07:45.516Z,10.71
2018-11-10T00:10:13.883Z,10.75
2018-11-10T00:12:42.196Z,10.76
2018-11-10T00:15:12.439Z,10.83
2018-11-10T00:17:41.567Z,10.91
2018-11-10T00:20:10.286Z,10.96
2018-11-10T00:22:39.755Z,10.91
2018-11-10T00:25:10.728Z,10.89
2018-11-10T00:27:39.076Z,10.89
2018-11-10T00:30:09.227Z,10.96
2018-11-10T00:32:37.548Z,11.03
2018-11-10T00:35:06.183Z,11.01
2018-11-10T00:37:35.015Z,10.95
2018-11-10T00:40:03.659Z,11.02
2018-11-10T00:42:31.987Z,10.96
2018-11-10T00:45:00.302Z,10.94
2018-11-10T00:47:28.638Z,10.83
2018-11-10T00:49:56.980Z,10.76
2018-11-10T00:52:25.324Z,10.73
2018-11-10T00:54:53.759Z,10.64
2018-11-10T00:57:22.072Z,10.63
2018-11-10T00:59:50.422Z,10.61
2018-11-10T01:02:18.751Z,10.58
2018-11-10T01:04:47.075Z,10.56
2018-11-10T01:07:15.379Z,10.52
2018-11-10T01:09:43.740Z,10.49
2018-11-10T01:12:12.539Z,10.48
2018-11-10T01:14:40.864Z,10.41
2018-11-10T01:17:09.179Z,10.38
2018-11-10T01:19:37.539Z,10.43
2018-11-10T01:22:06.303Z,10.45
2018-11-10T01:24:34.655Z,10.48
2018-11-10T01:27:02.965Z,10.51
2018-11-10T01:29:31.296Z,10.44
2018-11-10T01:31:59.615Z,10.43
2018-11-10T01:34:27.931Z,10.50
2018-11-10T01:36:56.251Z,10.55
2018-11-10T01:39:24.595Z,10.54
2018-11-10T01:41:52.903Z,10.54
2018-11-10T01:44:21.255Z,10.51
2018-11-10T01:46:49.547Z,10.38
2018-11-10T01:49:17.920Z,10.34
2018-11-10T01:51:46.239Z,10.30
2018-11-10T01:54:14.663Z,10.27
2018-11-10T01:56:42.991Z,10.22
2018-11-10T01:59:11.303Z,10.27
2018-11-10T02:01:39.619Z,10.21
2018-11-10T02:04:07.923Z,10.14
2018-11-10T02:06:36.331Z,10.13
2018-11-10T02:09:06.749Z,10.10
2018-11-10T02:11:35.351Z,10.07
2018-11-10T02:14:03.755Z,10.06
2018-11-10T02:16:32.071Z,10.08
2018-11-10T02:19:00.380Z,10.05
2018-11-10T02:21:28.711Z,10.03
2018-11-10T02:23:57.059Z,10.01
2018-11-10T02:26:25.420Z,9.96
2018-11-10T02:28:53.754Z,9.93
2018-11-10T02:31:22.067Z,9.89
2018-11-10T02:33:50.388Z,9.86
2018-11-10T02:36:18.724Z,9.85
2018-11-10T02:38:47.074Z,9.80
2018-11-10T02:41:15.355Z,9.89
2018-11-10T02:43:43.719Z,9.88
2018-11-10T02:46:12.083Z,9.80
2018-11-10T02:48:40.399Z,9.79
2018-11-10T02:51:08.711Z,9.77
2018-11-10T02:53:36.996Z,9.67
2018-11-10T02:56:05.523Z,9.68
2018-11-10T02:58:33.831Z,9.62
2018-11-10T03:01:02.156Z,9.63
2018-11-10T03:03:30.472Z,9.63
2018-11-10T03:05:58.801Z,9.75
2018-11-10T03:08:27.135Z,9.84
2018-11-10T03:10:55.537Z,9.82
2018-11-10T03:13:36.859Z,9.73
2018-11-10T03:16:15.773Z,9.78
2018-11-10T03:18:47.794Z,9.86
2018-11-10T03:21:16.103Z,9.89
2018-11-10T03:23:44.387Z,9.80
2018-11-10T03:26:12.726Z,9.83
2018-11-10T03:28:41.019Z,9.78
2018-11-10T03:31:09.351Z,9.79
2018-11-10T03:33:37.675Z,9.84
2018-11-10T03:36:06.052Z,9.82
2018-11-10T03:38:34.347Z,9.83
2018-11-10T03:41:02.728Z,9.82
2018-11-10T03:43:31.944Z,9.71
2018-11-10T03:46:00.251Z,9.65
2018-11-10T03:48:28.560Z,9.55
2018-11-10T03:50:56.884Z,9.55
2018-11-10T03:53:25.187Z,9.54
2018-11-10T03:55:53.499Z,9.53
2018-11-10T03:58:21.774Z,9.48
2018-11-10T04:00:50.624Z,9.41
2018-11-10T04:03:18.943Z,9.33
2018-11-10T04:05:47.276Z,9.20
2018-11-10T04:08:15.570Z,9.10
2018-11-10T04:10:43.899Z,9.10
2018-11-10T04:13:12.216Z,9.00
2018-11-10T04:15:40.667Z,9.03
2018-11-10T04:18:08.976Z,9.22
2018-11-10T04:20:37.292Z,9.21
2018-11-10T04:23:06.530Z,9.14
2018-11-10T04:25:34.877Z,9.17
2018-11-10T04:28:03.191Z,9.37
2018-11-10T04:30:31.507Z,9.44
2018-11-10T04:32:59.803Z,9.34
2018-11-10T04:35:28.099Z,9.18
2018-11-10T04:37:56.415Z,9.11
2018-11-10T04:40:24.711Z,9.03
2018-11-10T04:42:53.015Z,9.02
2018-11-10T04:45:21.307Z,8.89
2018-11-10T04:47:49.635Z,8.84
2018-11-10T04:50:17.919Z,8.77
2018-11-10T04:52:46.247Z,8.75
2018-11-10T04:55:14.551Z,8.70
2018-11-10T04:57:42.883Z,8.75
2018-11-10T05:00:14.191Z,8.86
2018-11-10T05:02:43.111Z,8.87
2018-11-10T05:05:11.408Z,9.02
2018-11-10T05:07:39.739Z,9.15
2018-11-10T05:10:09.031Z,9.29
2018-11-10T05:12:37.374Z,9.49
2018-11-10T05:15:06.943Z,9.50
2018-11-10T05:17:35.259Z,9.54
2018-11-10T05:20:03.651Z,9.62
2018-11-10T05:22:31.992Z,9.78
2018-11-10T05:25:00.295Z,10.04
2018-11-10T05:27:28.715Z,10.22
2018-11-10T05:29:57.239Z,10.32
2018-11-10T05:32:25.558Z,10.41
2018-11-10T05:34:53.943Z,10.43
2018-11-10T05:37:22.262Z,10.41
2018-11-10T05:39:50.544Z,10.38
2018-11-10T05:42:19.040Z,10.12
2018-11-10T05:44:47.349Z,9.91
2018-11-10T05:47:15.783Z,9.66
2018-11-10T05:49:44.071Z,9.62
2018-11-10T05:52:12.387Z,9.67
2018-11-10T05:54:40.695Z,9.71
2018-11-10T05:57:09.039Z,9.68
2018-11-10T05:59:37.343Z,9.71
2018-11-10T06:02:05.963Z,9.63
2018-11-10T06:04:34.263Z,9.63
2018-11-10T06:07:02.631Z,9.62
2018-11-10T06:09:31.012Z,9.59
2018-11-10T06:11:59.666Z,9.58
2018-11-10T06:14:27.959Z,9.55
2018-11-10T06:16:56.271Z,9.63
2018-11-10T06:19:24.647Z,9.73
2018-11-10T06:21:52.947Z,9.83
2018-11-10T06:24:21.256Z,9.88
2018-11-10T06:26:49.579Z,9.95
2018-11-10T06:29:17.875Z,10.03
2018-11-10T06:31:46.199Z,10.02
2018-11-10T06:34:14.502Z,10.07
2018-11-10T06:36:42.866Z,10.05
2018-11-10T06:39:12.148Z,9.89
2018-11-10T06:41:40.735Z,9.90
2018-11-10T06:44:09.047Z,9.71
2018-11-10T06:46:37.885Z,9.75
2018-11-10T06:49:06.795Z,9.74
2018-11-10T06:51:35.095Z,9.75
2018-11-10T06:54:03.428Z,9.73
2018-11-10T06:56:31.759Z,9.83
2018-11-10T06:59:00.084Z,9.96
2018-11-10T07:01:28.415Z,10.04
2018-11-10T07:03:56.777Z,9.95
2018-11-10T07:06:25.062Z,9.95
2018-11-10T07:08:53.366Z,10.06
2018-11-10T07:11:21.659Z,10.08
2018-11-10T07:13:50.102Z,10.03
2018-11-10T07:16:18.387Z,10.04
2018-11-10T07:18:46.695Z,10.09
2018-11-10T07:21:14.987Z,10.06
2018-11-10T07:23:43.315Z,10.11
2018-11-10T07:26:11.604Z,10.05
2018-11-10T07:28:39.923Z,9.90
2018-11-10T07:31:08.224Z,9.85
2018-11-10T07:33:38.858Z,9.79
2018-11-10T07:36:07.187Z,9.68
2018-11-10T07:38:35.499Z,9.63
2018-11-10T07:41:03.823Z,9.63
2018-11-10T07:43:32.168Z,9.69
2018-11-10T07:46:00.476Z,9.67
2018-11-10T07:48:28.783Z,9.74
2018-11-10T07:50:57.070Z,9.79
2018-11-10T07:53:25.403Z,9.74
2018-11-10T07:55:53.896Z,9.82
2018-11-10T07:58:22.160Z,9.86
2018-11-10T08:00:50.446Z,9.81
2018-11-10T08:03:18.793Z,10.03
2018-11-10T08:05:47.102Z,10.20
2018-11-10T08:08:15.419Z,10.41
2018-11-10T08:10:43.727Z,10.22
2018-11-10T08:13:12.035Z,10.31
2018-11-10T08:15:40.371Z,10.26
2018-11-10T08:18:08.707Z,10.27
2018-11-10T08:20:37.031Z,10.14
2018-11-10T08:23:05.416Z,10.18
2018-11-10T08:25:33.748Z,10.03
2018-11-10T08:28:02.071Z,10.24
2018-11-10T08:30:30.411Z,10.29
2018-11-10T08:32:59.139Z,10.29
2018-11-10T08:35:27.491Z,10.41
2018-11-10T08:37:55.803Z,10.48
2018-11-10T08:40:24.116Z,10.36
2018-11-10T08:42:52.419Z,10.42
2018-11-10T08:45:20.750Z,10.44
2018-11-10T08:47:49.046Z,10.47
2018-11-10T08:50:17.903Z,10.71
2018-11-10T08:52:46.222Z,10.59
2018-11-10T08:55:14.776Z,10.72
2018-11-10T08:57:43.821Z,11.24
2018-11-10T09:00:12.464Z,11.38
2018-11-10T09:02:40.824Z,11.68
2018-11-10T09:05:10.431Z,12.03
2018-11-10T09:07:38.726Z,11.70
2018-11-10T09:10:08.516Z,11.89
2018-11-10T09:12:36.877Z,11.64
2018-11-10T09:15:06.815Z,11.63
2018-11-10T09:17:35.088Z,12.07
2018-11-10T09:20:03.438Z,11.88
2018-11-10T09:22:32.273Z,12.03
2018-11-10T09:25:00.591Z,11.57
2018-11-10T09:27:28.904Z,11.27
2018-11-10T09:29:57.243Z,11.56
2018-11-10T09:32:25.586Z,11.42
2018-11-10T09:34:53.919Z,11.28
2018-11-10T09:37:22.229Z,11.30
2018-11-10T09:39:50.539Z,11.37
2018-11-10T09:42:18.929Z,11.47
2018-11-10T09:44:47.583Z,11.53
2018-11-10T09:47:16.067Z,11.46
2018-11-10T09:49:44.392Z,11.56
2018-11-10T09:52:12.720Z,11.89
2018-11-10T09:54:41.023Z,11.67
2018-11-10T09:57:09.351Z,11.87
2018-11-10T09:59:37.658Z,11.83
2018-11-10T10:02:06.610Z,11.82
2018-11-10T10:04:34.587Z,11.48
2018-11-10T10:07:03.830Z,11.55
2018-11-10T10:09:32.131Z,11.66
2018-11-10T10:12:00.444Z,11.82
2018-11-10T10:14:28.755Z,11.73
2018-11-10T10:16:57.069Z,11.88
2018-11-10T10:19:25.390Z,12.02
2018-11-10T10:21:53.782Z,11.81
2018-11-10T10:24:22.043Z,11.96
2018-11-10T10:26:50.355Z,12.31
2018-11-10T10:29:18.685Z,12.20
2018-11-10T10:31:47.007Z,12.71
2018-11-10T10:34:15.366Z,12.78
2018-11-10T10:36:43.647Z,13.31
2018-11-10T10:39:11.939Z,13.94
2018-11-10T10:41:40.359Z,14.03
2018-11-10T10:44:09.688Z,14.28
2018-11-10T10:46:38.040Z,14.29
2018-11-10T10:49:06.612Z,13.40
2018-11-10T10:51:35.339Z,13.19
2018-11-10T10:54:03.659Z,13.15
2018-11-10T10:56:32.054Z,13.18
2018-11-10T10:59:00.315Z,12.89
2018-11-10T11:01:33.938Z,12.95
2018-11-10T11:04:07.445Z,13.39
2018-11-10T11:06:35.752Z,13.45
2018-11-10T11:09:04.603Z,13.48
2018-11-10T11:11:32.892Z,13.66
2018-11-10T11:14:01.221Z,14.51
2018-11-10T11:16:29.947Z,14.84
2018-11-10T11:18:58.583Z,15.76
2018-11-10T11:21:26.880Z,14.15
2018-11-10T11:23:55.196Z,14.23
2018-11-10T11:26:24.129Z,14.63
2018-11-10T11:28:52.440Z,15.15
2018-11-10T11:31:20.744Z,14.68
2018-11-10T11:33:49.103Z,15.80
2018-11-10T11:36:17.400Z,15.23
2018-11-10T11:38:45.727Z,16.26
2018-11-10T11:41:14.969Z,15.13
2018-11-10T11:43:43.149Z,14.84
2018-11-10T11:46:11.560Z,14.67
2018-11-10T11:48:39.992Z,15.31
2018-11-10T11:51:08.313Z,14.68
2018-11-10T11:53:36.635Z,14.92
2018-11-10T11:56:05.267Z,14.48
2018-11-10T11:58:33.588Z,15.65
2018-11-10T12:01:01.896Z,16.28
2018-11-10T12:03:30.216Z,17.46
2018-11-10T12:05:58.531Z,19.39
2018-11-10T12:08:26.847Z,18.28
2018-11-10T12:10:55.149Z,16.48
2018-11-10T12:13:23.464Z,15.20
2018-11-10T12:15:51.819Z,14.55
2018-11-10T12:18:20.162Z,14.02
2018-11-10T12:20:48.517Z,13.89
2018-11-10T12:23:16.780Z,13.85
2018-11-10T12:25:45.067Z,13.82
2018-11-10T12:28:13.631Z,13.72
2018-11-10T12:30:41.963Z,13.68
2018-11-10T12:33:10.287Z,13.50
2018-11-10T12:35:38.579Z,13.36
2018-11-10T12:38:07.579Z,13.42
2018-11-10T12:40:35.903Z,13.47
2018-11-10T12:43:04.236Z,13.53
2018-11-10T12:45:32.588Z,13.62
2018-11-10T12:48:01.345Z,13.30
2018-11-10T12:50:29.648Z,13.29
2018-11-10T12:52:57.962Z,13.35
2018-11-10T12:55:26.297Z,13.18
2018-11-10T12:57:54.639Z,13.14
2018-11-10T13:00:22.944Z,12.89
2018-11-10T13:02:51.275Z,12.79
2018-11-10T13:05:19.600Z,12.77
2018-11-10T13:07:48.287Z,12.75
2018-11-10T13:10:16.617Z,12.60
2018-11-10T13:12:45.312Z,12.53
2018-11-10T13:15:13.626Z,12.65
2018-11-10T13:17:41.998Z,12.50
2018-11-10T13:20:12.548Z,12.34
2018-11-10T13:22:40.835Z,12.22
2018-11-10T13:25:10.235Z,12.16
2018-11-10T13:27:38.663Z,12.17
2018-11-10T13:30:08.668Z,12.22
2018-11-10T13:32:37.000Z,12.20
2018-11-10T13:35:06.266Z,12.33
2018-11-10T13:37:34.658Z,12.30
2018-11-10T13:40:03.015Z,12.25
2018-11-10T13:42:31.382Z,12.23
2018-11-10T13:44:59.651Z,12.26
2018-11-10T13:47:27.950Z,12.14
2018-11-10T13:49:56.275Z,12.13
2018-11-10T13:52:24.905Z,12.19
2018-11-10T13:54:53.226Z,12.23
2018-11-10T13:57:21.547Z,12.17
2018-11-10T13:59:50.259Z,12.17
2018-11-10T14:02:18.566Z,12.19
2018-11-10T14:04:46.856Z,12.26
2018-11-10T14:07:15.165Z,12.14
2018-11-10T14:09:43.476Z,12.15
2018-11-10T14:12:11.783Z,12.23
2018-11-10T14:14:40.067Z,12.13
2018-11-10T14:17:08.705Z,12.03
2018-11-10T14:19:37.116Z,12.05
2018-11-10T14:22:05.604Z,12.06
2018-11-10T14:24:33.896Z,12.09
2018-11-10T14:27:02.232Z,12.09
2018-11-10T14:29:30.511Z,12.12
2018-11-10T14:31:58.832Z,12.30
2018-11-10T14:34:27.325Z,12.21
2018-11-10T14:36:55.629Z,12.19
2018-11-10T14:39:23.939Z,12.09
2018-11-10T14:41:52.571Z,12.05
2018-11-10T14:44:20.884Z,12.25
2018-11-10T14:46:49.193Z,12.12
2018-11-10T14:49:17.515Z,12.15
2018-11-10T14:51:45.832Z,12.08
2018-11-10T14:54:14.139Z,12.01
2018-11-10T14:56:42.471Z,12.02
2018-11-10T14:59:10.763Z,12.04
2018-11-10T15:01:39.095Z,12.05
2018-11-10T15:04:07.423Z,11.94
2018-11-10T15:06:35.748Z,11.96
2018-11-10T15:09:04.919Z,12.07
2018-11-10T15:11:33.680Z,12.03
2018-11-10T15:14:01.925Z,11.91
2018-11-10T15:16:30.243Z,11.87
2018-11-10T15:18:58.547Z,11.85
2018-11-10T15:21:27.155Z,11.86
2018-11-10T15:23:55.469Z,11.85
2018-11-10T15:26:23.818Z,11.86
2018-11-10T15:28:52.130Z,11.89
2018-11-10T15:31:20.444Z,11.83
2018-11-10T15:33:48.759Z,11.80
2018-11-10T15:36:17.063Z,11.85
2018-11-10T15:38:45.551Z,11.74
2018-11-10T15:41:13.870Z,11.76
2018-11-10T15:43:42.176Z,11.73
2018-11-10T15:46:10.750Z,11.68
2018-11-10T15:48:40.328Z,11.68
2018-11-10T15:51:08.665Z,11.69
2018-11-10T15:53:36.963Z,11.72
2018-11-10T15:56:05.519Z,11.67
2018-11-10T15:58:33.831Z,11.65
2018-11-10T16:01:02.147Z,11.69
2018-11-10T16:03:30.828Z,11.63
2018-11-10T16:05:59.130Z,11.63
2018-11-10T16:08:27.462Z,11.54
2018-11-10T16:10:55.764Z,11.55
2018-11-10T16:13:24.095Z,11.51
2018-11-10T16:15:52.401Z,11.54
2018-11-10T16:18:20.727Z,11.57
2018-11-10T16:20:49.071Z,11.61
2018-11-10T16:23:17.343Z,11.55
2018-11-10T16:25:45.654Z,11.59
2018-11-10T16:28:13.983Z,11.53
2018-11-10T16:30:42.307Z,11.55
2018-11-10T16:33:10.659Z,11.64
2018-11-10T16:35:38.960Z,11.61
2018-11-10T16:38:07.291Z,11.57
2018-11-10T16:40:35.595Z,11.53
2018-11-10T16:43:03.924Z,11.59
2018-11-10T16:45:32.239Z,11.71
2018-11-10T16:48:00.551Z,11.72
2018-11-10T16:50:28.843Z,11.75
2018-11-10T16:52:57.168Z,11.85
2018-11-10T16:55:25.482Z,11.83
2018-11-10T16:57:53.794Z,11.82
2018-11-10T17:00:22.221Z,11.85
2018-11-10T17:02:50.544Z,11.78
2018-11-10T17:05:18.842Z,11.80
2018-11-10T17:07:47.184Z,11.81
2018-11-10T17:10:17.282Z,11.85
2018-11-10T17:12:45.616Z,11.96
2018-11-10T17:15:13.934Z,11.87
2018-11-10T17:17:42.261Z,11.87
2018-11-10T17:20:13.023Z,11.93
2018-11-10T17:22:41.440Z,11.89
2018-11-10T17:25:10.395Z,11.88
2018-11-10T17:27:39.100Z,11.93
2018-11-10T17:30:10.131Z,11.89
2018-11-10T17:32:38.459Z,11.97
2018-11-10T17:35:07.274Z,11.93
2018-11-10T17:37:35.691Z,11.93
2018-11-10T17:40:04.096Z,11.91
2018-11-10T17:42:32.828Z,12.00
2018-11-10T17:45:01.352Z,11.95
2018-11-10T17:47:29.667Z,11.98
2018-11-10T17:49:57.984Z,11.93
2018-11-10T17:52:26.308Z,12.00
2018-11-10T17:54:54.679Z,12.06
2018-11-10T17:57:22.951Z,12.03
2018-11-10T17:59:51.612Z,12.05
2018-11-10T18:02:20.005Z,12.03
2018-11-10T18:04:48.256Z,11.92
2018-11-10T18:07:16.575Z,11.98
2018-11-10T18:09:44.878Z,12.00
2018-11-10T18:12:13.191Z,12.07
2018-11-10T18:14:41.495Z,12.04
2018-11-10T18:17:09.808Z,12.05
2018-11-10T18:19:38.248Z,12.00
2018-11-10T18:22:06.534Z,11.96
2018-11-10T18:24:35.102Z,11.99
2018-11-10T18:27:03.532Z,12.02
2018-11-10T18:29:31.873Z,11.89
2018-11-10T18:32:00.155Z,11.91
2018-11-10T18:34:28.739Z,11.86
2018-11-10T18:36:58.012Z,11.83
2018-11-10T18:39:26.414Z,11.85
2018-11-10T18:41:54.663Z,11.83
2018-11-10T18:44:26.106Z,11.85
2018-11-10T18:46:55.680Z,11.81
2018-11-10T18:49:25.499Z,11.76
2018-11-10T18:51:55.027Z,11.73
2018-11-10T18:54:25.078Z,11.73
2018-11-10T18:56:53.613Z,11.64
2018-11-10T18:59:22.971Z,11.59
2018-11-10T19:01:52.983Z,11.56
2018-11-10T19:04:22.620Z,11.50
2018-11-10T19:06:52.283Z,11.49
2018-11-10T19:09:23.369Z,11.47
2018-11-10T19:11:52.657Z,11.43
2018-11-10T19:14:22.323Z,11.43
2018-11-10T19:16:53.916Z,11.43
2018-11-10T19:19:23.474Z,11.41
2018-11-10T19:21:52.973Z,11.40
2018-11-10T19:24:22.567Z,11.38
2018-11-10T19:26:52.274Z,11.39
2018-11-10T19:29:21.924Z,11.36
2018-11-10T19:31:51.916Z,11.40
2018-11-10T19:34:22.923Z,11.36
2018-11-10T19:36:53.349Z,11.35
2018-11-10T19:39:25.674Z,11.40
2018-11-10T19:41:54.971Z,11.46
2018-11-10T19:44:24.390Z,11.33
2018-11-10T19:46:53.827Z,11.33
2018-11-10T19:49:24.270Z,11.34
2018-11-10T19:51:52.918Z,11.33
2018-11-10T19:54:21.212Z,11.36
2018-11-10T19:56:49.539Z,11.29
2018-11-10T19:59:18.071Z,11.25
2018-11-10T20:01:46.370Z,11.25
2018-11-10T20:04:19.046Z,11.19
2018-11-10T20:06:50.288Z,11.20
2018-11-10T20:09:19.703Z,11.15
2018-11-10T20:11:54.515Z,11.16
2018-11-10T20:14:27.606Z,11.15
2018-11-10T20:16:58.859Z,11.13
2018-11-10T20:19:28.488Z,11.11
2018-11-10T20:21:57.971Z,11.12
2018-11-10T20:24:28.250Z,11.13
2018-11-10T20:26:57.645Z,11.11
2018-11-10T20:29:26.527Z,11.16
2018-11-10T20:31:57.406Z,11.15
2018-11-10T20:34:27.142Z,11.07
2018-11-10T20:36:56.721Z,11.09
2018-11-10T20:39:26.133Z,11.11
2018-11-10T20:41:55.590Z,11.08
2018-11-10T20:44:24.398Z,11.12
2018-11-10T20:46:57.461Z,11.10
2018-11-10T20:49:29.238Z,11.06
2018-11-10T20:51:57.599Z,11.07
2018-11-10T20:54:26.803Z,11.09
2018-11-10T20:56:55.895Z,11.12
2018-11-10T20:59:26.116Z,11.09
2018-11-10T21:01:55.641Z,11.09
2018-11-10T21:04:23.980Z,11.05
2018-11-10T21:06:52.312Z,10.99
2018-11-10T21:09:20.625Z,11.07
2018-11-10T21:11:48.968Z,11.06
2018-11-10T21:14:17.977Z,11.02
2018-11-10T21:16:46.313Z,10.96
2018-11-10T21:19:14.639Z,10.96
2018-11-10T21:21:42.944Z,10.95
2018-11-10T21:24:11.265Z,10.92
2018-11-10T21:26:39.854Z,10.93
2018-11-10T21:29:09.004Z,10.91
2018-11-10T21:31:38.726Z,10.95
2018-11-10T21:34:07.549Z,10.95
2018-11-10T21:36:36.503Z,10.93
2018-11-10T21:39:07.535Z,10.90
2018-11-10T21:41:35.861Z,10.87
2018-11-10T21:44:04.191Z,10.89
2018-11-10T21:46:33.566Z,10.88
2018-11-10T21:49:02.033Z,10.93
2018-11-10T21:51:30.363Z,10.97
2018-11-10T21:53:58.907Z,10.91
2018-11-10T21:56:27.219Z,10.94
2018-11-10T21:58:58.435Z,10.93
2018-11-10T22:01:26.747Z,10.91
2018-11-10T22:03:55.075Z,10.93
2018-11-10T22:06:23.428Z,10.92
2018-11-10T22:08:51.777Z,10.93
2018-11-10T22:11:20.475Z,10.94
2018-11-10T22:13:48.776Z,10.86
2018-11-10T22:16:18.359Z,10.89
2018-11-10T22:18:46.687Z,10.82
2018-11-10T22:21:15.228Z,10.92
2018-11-10T22:23:43.540Z,10.84
2018-11-10T22:26:11.843Z,10.82
2018-11-10T22:28:41.296Z,10.75
2018-11-10T22:31:10.475Z,10.73
2018-11-10T22:33:38.775Z,10.71
2018-11-10T22:36:07.094Z,10.68
2018-11-10T22:38:35.404Z,10.69
2018-11-10T22:41:03.715Z,10.66
2018-11-10T22:43:34.201Z,10.63
2018-11-10T22:46:02.501Z,10.64
2018-11-10T22:48:30.818Z,10.64
2018-11-10T22:50:59.915Z,10.67
2018-11-10T22:53:28.276Z,10.62
2018-11-10T22:55:56.595Z,10.55
2018-11-10T22:58:28.667Z,10.54
2018-11-10T23:01:02.030Z,10.50
2018-11-10T23:03:31.467Z,10.53
2018-11-10T23:05:59.760Z,10.51
2018-11-10T23:08:28.052Z,10.46
2018-11-10T23:10:56.470Z,10.42
2018-11-10T23:13:24.790Z,10.53
2018-11-10T23:15:53.106Z,10.53
2018-11-10T23:18:21.431Z,10.48
2018-11-10T23:20:49.699Z,10.38
2018-11-10T23:23:18.051Z,10.43
2018-11-10T23:25:46.335Z,10.40
2018-11-10T23:28:14.638Z,10.41
2018-11-10T23:30:42.940Z,10.41
2018-11-10T23:33:11.238Z,10.36
2018-11-10T23:35:39.575Z,10.34
2018-11-10T23:38:07.889Z,10.31
2018-11-10T23:40:36.195Z,10.30
2018-11-10T23:43:04.583Z,10.26
2018-11-10T23:45:32.861Z,10.19
2018-11-10T23:48:01.163Z,10.16
2018-11-10T23:50:29.476Z,10.11
2018-11-10T23:52:57.788Z,10.07
2018-11-10T23:55:26.068Z,10.08
2018-11-10T23:57:54.358Z,10.03
